Terminal Aerodrome Forecast
Issued by NWS

Home | Current Version | Previous Version | Text Only | Print | Product List | Glossary On
Versions: 1 2 3 4 5 6 7 8 9 10 11 12 13 14 15 16 17 18 19 20 21 22 23 24 25 26 27 28
225
FTUS43 KLSX 271730
TAFUIN
TAF
KUIN 271730Z 2718/2818 05009KT 5SM -SHRA OVC008
     FM272000 03010KT P6SM VCSH OVC015
     FM280200 36008KT P6SM OVC025
     FM280600 35007KT P6SM OVC015
     FM281000 02007KT P6SM BKN008=

USA.gov is the U.S. government's official web portal to all federal, state and local government web resources and services.